Time,TemperatureF,DewpointF,PressureIn,WindDirection,WindDirectionDegrees,WindSpeedMPH,WindSpeedGustMPH,Humidity,HourlyPrecipIn,Conditions,Clouds,dailyrainin,SoftwareType,DateUTC
2013-03-04 00:09:00,30.7,21.4,29.43,West,270,0.0,-999.0,68,-99.99,,,0.00,Acu-Link.com,2013-03-04 07:09:00,
2013-03-04 00:24:00,30.9,20.5,29.44,NNW,337,0.0,-999.0,65,-99.99,,,0.00,Acu-Link.com,2013-03-04 07:24:00,
2013-03-04 00:39:00,31.6,20.8,29.44,SW,225,0.0,-999.0,64,-99.99,,,0.00,Acu-Link.com,2013-03-04 07:39:00,
2013-03-04 00:54:00,31.1,21.8,29.43,WSW,247,0.0,-999.0,68,-99.99,,,0.00,Acu-Link.com,2013-03-04 07:54:00,
2013-03-04 01:10:00,31.1,21.8,29.44,ESE,112,0.0,-999.0,68,-99.99,,,0.00,Acu-Link.com,2013-03-04 08:10:00,
2013-03-04 01:25:00,31.1,21.8,29.44,NW,315,0.0,-999.0,68,-99.99,,,0.00,Acu-Link.com,2013-03-04 08:25:00,
2013-03-04 01:40:00,30.7,21.8,29.43,SW,225,0.0,-999.0,69,-99.99,,,0.00,Acu-Link.com,2013-03-04 08:40:00,
2013-03-04 01:55:00,30.4,21.5,29.43,NNE,22,0.0,-999.0,69,-99.99,,,0.00,Acu-Link.com,2013-03-04 08:55:00,
2013-03-04 02:20:00,30.6,21.3,29.44,SSW,202,0.0,-999.0,68,-99.99,,,0.00,Acu-Link.com,2013-03-04 09:20:00,
2013-03-04 02:35:00,30.6,21.0,29.42,West,270,0.0,-999.0,67,-99.99,,,0.00,Acu-Link.com,2013-03-04 09:35:00,
2013-03-04 02:50:00,30.0,22.4,29.42,NW,315,0.0,-999.0,73,-99.99,,,0.00,Acu-Link.com,2013-03-04 09:50:00,
2013-03-04 03:05:00,29.3,22.7,29.43,ESE,112,0.0,-999.0,76,-99.99,,,0.00,Acu-Link.com,2013-03-04 10:05:00,
2013-03-04 03:20:00,28.8,23.4,29.43,NNE,22,0.0,-999.0,80,-99.99,,,0.00,Acu-Link.com,2013-03-04 10:20:00,
2013-03-04 03:35:00,28.2,22.8,29.43,West,270,0.0,-999.0,80,-99.99,,,0.00,Acu-Link.com,2013-03-04 10:35:00,
2013-03-04 03:50:00,27.9,22.8,29.43,SW,225,0.0,-999.0,81,-99.99,,,0.00,Acu-Link.com,2013-03-04 10:50:00,
2013-03-04 04:06:00,27.9,23.1,29.44,WNW,292,0.0,-999.0,82,-99.99,,,0.00,Acu-Link.com,2013-03-04 11:06:00,
2013-03-04 04:21:00,27.7,22.9,29.42,WSW,247,0.0,-999.0,82,-99.99,,,0.00,Acu-Link.com,2013-03-04 11:21:00,
2013-03-04 04:36:00,27.1,22.3,29.40,ENE,67,0.0,-999.0,82,-99.99,,,0.00,Acu-Link.com,2013-03-04 11:36:00,
2013-03-04 04:52:00,26.8,21.5,29.40,WSW,247,0.0,-999.0,80,-99.99,,,0.00,Acu-Link.com,2013-03-04 11:52:00,
2013-03-04 05:07:00,26.1,19.9,29.40,East,90,0.0,-999.0,77,-99.99,,,0.00,Acu-Link.com,2013-03-04 12:07:00,
2013-03-04 05:22:00,25.5,19.6,29.40,ESE,112,0.0,-999.0,78,-99.99,,,0.00,Acu-Link.com,2013-03-04 12:22:00,
2013-03-04 05:37:00,23.5,18.3,29.42,NNE,22,0.0,-999.0,80,-99.99,,,0.00,Acu-Link.com,2013-03-04 12:37:00,
2013-03-04 05:52:00,22.5,17.3,29.42,North,0,0.0,-999.0,80,-99.99,,,0.00,Acu-Link.com,2013-03-04 12:52:00,
2013-03-04 06:08:00,22.5,17.3,29.41,North,0,0.0,-999.0,80,-99.99,,,0.00,Acu-Link.com,2013-03-04 13:08:00,
2013-03-04 06:23:00,22.3,17.1,29.41,ESE,112,0.0,-999.0,80,-99.99,,,0.00,Acu-Link.com,2013-03-04 13:23:00,
2013-03-04 06:38:00,22.1,16.9,29.41,ESE,112,0.0,-999.0,80,-99.99,,,0.00,Acu-Link.com,2013-03-04 13:38:00,
2013-03-04 06:54:00,22.3,16.8,29.43,NNE,22,0.0,-999.0,79,-99.99,,,0.00,Acu-Link.com,2013-03-04 13:54:00,
2013-03-04 07:09:00,22.5,17.0,29.42,SE,135,0.0,-999.0,79,-99.99,,,0.00,Acu-Link.com,2013-03-04 14:09:00,
2013-03-04 07:24:00,23.9,18.4,29.42,SSW,202,0.0,-999.0,79,-99.99,,,0.00,Acu-Link.com,2013-03-04 14:24:00,
2013-03-04 07:40:00,29.7,23.1,29.40,ESE,112,0.0,-999.0,76,-99.99,,,0.00,Acu-Link.com,2013-03-04 14:40:00,
2013-03-04 07:55:00,35.6,25.0,29.41,NE,45,0.0,-999.0,65,-99.99,,,0.00,Acu-Link.com,2013-03-04 14:55:00,
2013-03-04 08:10:00,34.5,24.7,29.42,ENE,67,0.0,-999.0,67,-99.99,,,0.00,Acu-Link.com,2013-03-04 15:10:00,
2013-03-04 08:25:00,31.6,23.0,29.42,ENE,67,0.0,-999.0,70,-99.99,,,0.00,Acu-Link.com,2013-03-04 15:25:00,
2013-03-04 08:40:00,33.1,23.0,29.42,East,90,0.0,-999.0,66,-99.99,,,0.00,Acu-Link.com,2013-03-04 15:40:00,
2013-03-04 08:56:00,34.0,22.7,29.42,ENE,67,0.0,-999.0,63,-99.99,,,0.00,Acu-Link.com,2013-03-04 15:56:00,
2013-03-04 09:11:00,34.7,24.9,29.42,North,0,0.0,-999.0,67,-99.99,,,0.00,Acu-Link.com,2013-03-04 16:11:00,
2013-03-04 09:27:00,36.7,22.1,29.41,SW,225,0.0,-999.0,55,-99.99,,,0.00,Acu-Link.com,2013-03-04 16:27:00,
2013-03-04 09:42:00,37.4,22.3,29.41,WSW,247,4.2,-999.0,54,-99.99,,,0.00,Acu-Link.com,2013-03-04 16:42:00,
2013-03-04 09:57:00,31.1,21.8,29.41,West,270,0.0,-999.0,68,-99.99,,,0.00,Acu-Link.com,2013-03-04 16:57:00,
2013-03-04 10:13:00,34.0,22.7,29.40,NE,45,0.0,-999.0,63,-99.99,,,0.02,Acu-Link.com,2013-03-04 17:13:00,
2013-03-04 10:28:00,38.1,20.7,29.40,NNW,337,0.0,-999.0,49,-99.99,,,0.04,Acu-Link.com,2013-03-04 17:28:00,
2013-03-04 10:43:00,40.5,20.9,29.39,NNW,337,1.1,-999.0,45,-99.99,,,0.06,Acu-Link.com,2013-03-04 17:43:00,
2013-03-04 10:58:00,39.7,21.1,29.39,SW,225,2.7,-999.0,47,-99.99,,,0.09,Acu-Link.com,2013-03-04 17:58:00,
2013-03-04 11:14:00,39.6,20.5,29.39,NNW,337,0.0,-999.0,46,-99.99,,,0.10,Acu-Link.com,2013-03-04 18:14:00,
2013-03-04 11:29:00,30.0,20.0,29.39,ENE,67,1.7,-999.0,66,-99.99,,,0.11,Acu-Link.com,2013-03-04 18:29:00,
2013-03-04 11:44:00,24.3,16.6,29.42,East,90,2.2,-999.0,72,-99.99,,,0.11,Acu-Link.com,2013-03-04 18:44:00,
2013-03-04 12:00:00,21.2,14.2,29.44,East,90,0.0,-999.0,74,-99.99,,,0.11,Acu-Link.com,2013-03-04 19:00:00,
2013-03-04 12:15:00,22.3,15.3,29.45,NNE,22,0.0,-999.0,74,-99.99,,,0.11,Acu-Link.com,2013-03-04 19:15:00,
2013-03-04 12:30:00,21.6,14.3,29.45,ENE,67,0.0,-999.0,73,-99.99,,,0.11,Acu-Link.com,2013-03-04 19:30:00,
2013-03-04 12:46:00,21.4,14.4,29.47,East,90,0.0,-999.0,74,-99.99,,,0.11,Acu-Link.com,2013-03-04 19:46:00,
2013-03-04 13:01:00,22.5,14.9,29.48,ENE,67,1.1,-999.0,72,-99.99,,,0.11,Acu-Link.com,2013-03-04 20:01:00,
2013-03-04 13:16:00,23.7,15.4,29.49,East,90,0.0,-999.0,70,-99.99,,,0.11,Acu-Link.com,2013-03-04 20:16:00,
2013-03-04 13:31:00,26.1,17.0,29.49,ENE,67,0.0,-999.0,68,-99.99,,,0.11,Acu-Link.com,2013-03-04 20:31:00,
2013-03-04 13:47:00,25.9,12.4,29.48,WSW,247,1.7,-999.0,56,-99.99,,,0.11,Acu-Link.com,2013-03-04 20:47:00,
2013-03-04 14:02:00,25.2,8.8,29.50,WNW,292,0.0,-999.0,49,-99.99,,,0.11,Acu-Link.com,2013-03-04 21:02:00,
2013-03-04 14:17:00,23.5,9.7,29.52,West,270,0.0,-999.0,55,-99.99,,,0.11,Acu-Link.com,2013-03-04 21:17:00,
2013-03-04 14:32:00,23.9,9.3,29.54,West,270,1.1,-999.0,53,-99.99,,,0.11,Acu-Link.com,2013-03-04 21:32:00,
2013-03-04 14:48:00,24.1,11.5,29.55,SSW,202,1.1,-999.0,58,-99.99,,,0.11,Acu-Link.com,2013-03-04 21:48:00,
2013-03-04 15:03:00,21.6,8.0,29.56,WNW,292,2.7,-999.0,55,-99.99,,,0.11,Acu-Link.com,2013-03-04 22:03:00,
2013-03-04 15:18:00,22.8,8.7,29.56,NW,315,0.0,-999.0,54,-99.99,,,0.11,Acu-Link.com,2013-03-04 22:18:00,
2013-03-04 15:33:00,20.7,7.1,29.56,NNW,337,3.7,-999.0,55,-99.99,,,0.11,Acu-Link.com,2013-03-04 22:33:00,
2013-03-04 15:48:00,19.0,5.9,29.58,West,270,4.2,-999.0,56,-99.99,,,0.11,Acu-Link.com,2013-03-04 22:48:00,
2013-03-04 16:04:00,18.3,5.3,29.59,WSW,247,6.8,-999.0,56,-99.99,,,0.11,Acu-Link.com,2013-03-04 23:04:00,
2013-03-04 16:19:00,18.0,5.0,29.61,NNE,22,0.0,-999.0,56,-99.99,,,0.11,Acu-Link.com,2013-03-04 23:19:00,
2013-03-04 16:34:00,18.0,5.4,29.64,SW,225,5.3,-999.0,57,-99.99,,,0.11,Acu-Link.com,2013-03-04 23:34:00,
2013-03-04 16:49:00,17.6,5.7,29.63,WSW,247,0.0,-999.0,59,-99.99,,,0.11,Acu-Link.com,2013-03-04 23:49:00,
2013-03-04 17:05:00,16.5,4.0,29.62,NW,315,4.2,-999.0,57,-99.99,,,0.11,Acu-Link.com,2013-03-05 00:05:00,
2013-03-04 17:20:00,15.3,2.8,29.59,SSW,202,1.1,-999.0,57,-99.99,,,0.11,Acu-Link.com,2013-03-05 00:20:00,
2013-03-04 17:35:00,14.4,2.7,29.60,NW,315,1.1,-999.0,59,-99.99,,,0.11,Acu-Link.com,2013-03-05 00:35:00,
2013-03-04 17:51:00,13.8,3.6,29.61,SSW,202,2.7,-999.0,63,-99.99,,,0.11,Acu-Link.com,2013-03-05 00:51:00,
2013-03-04 18:06:00,13.3,2.7,29.63,NNE,22,0.0,-999.0,62,-99.99,,,0.11,Acu-Link.com,2013-03-05 01:06:00,
2013-03-04 18:21:00,13.1,3.2,29.63,ENE,67,0.0,-999.0,64,-99.99,,,0.11,Acu-Link.com,2013-03-05 01:21:00,
2013-03-04 18:37:00,13.5,2.6,29.65,WNW,292,0.0,-999.0,61,-99.99,,,0.11,Acu-Link.com,2013-03-05 01:37:00,
2013-03-04 18:52:00,13.3,2.0,29.64,East,90,3.7,-999.0,60,-99.99,,,0.11,Acu-Link.com,2013-03-05 01:52:00,
2013-03-04 19:07:00,13.5,1.5,29.66,ESE,112,2.7,-999.0,58,-99.99,,,0.11,Acu-Link.com,2013-03-05 02:07:00,
2013-03-04 19:22:00,13.1,1.1,29.67,SE,135,0.0,-999.0,58,-99.99,,,0.11,Acu-Link.com,2013-03-05 02:22:00,
2013-03-04 19:38:00,12.6,0.3,29.69,East,90,0.0,-999.0,57,-99.99,,,0.11,Acu-Link.com,2013-03-05 02:38:00,
2013-03-04 19:53:00,12.4,-0.7,29.69,ESE,112,2.7,-999.0,55,-99.99,,,0.11,Acu-Link.com,2013-03-05 02:53:00,
2013-03-04 20:08:00,12.0,-1.4,29.70,NNE,22,0.0,-999.0,54,-99.99,,,0.11,Acu-Link.com,2013-03-05 03:08:00,
2013-03-04 20:23:00,12.0,-1.8,29.73,ESE,112,0.0,-999.0,53,-99.99,,,0.11,Acu-Link.com,2013-03-05 03:23:00,
2013-03-04 20:39:00,11.7,-2.1,29.73,ENE,67,0.0,-999.0,53,-99.99,,,0.11,Acu-Link.com,2013-03-05 03:39:00,
2013-03-04 20:54:00,12.7,-2.4,29.74,NNE,22,5.8,-999.0,50,-99.99,,,0.11,Acu-Link.com,2013-03-05 03:54:00,
2013-03-04 21:09:00,11.8,-2.8,29.75,WSW,247,0.0,-999.0,51,-99.99,,,0.11,Acu-Link.com,2013-03-05 04:09:00,
2013-03-04 21:25:00,11.8,-2.8,29.73,NNE,22,0.0,-999.0,51,-99.99,,,0.11,Acu-Link.com,2013-03-05 04:25:00,
2013-03-04 21:40:00,11.5,-3.1,29.74,WNW,292,4.2,-999.0,51,-99.99,,,0.11,Acu-Link.com,2013-03-05 04:40:00,
2013-03-04 21:55:00,12.6,-3.3,29.76,WSW,247,1.1,-999.0,48,-99.99,,,0.11,Acu-Link.com,2013-03-05 04:55:00,
2013-03-04 22:10:00,11.7,-2.9,29.76,SW,225,0.0,-999.0,51,-99.99,,,0.11,Acu-Link.com,2013-03-05 05:10:00,
2013-03-04 22:26:00,11.7,-3.3,29.78,East,90,1.1,-999.0,50,-99.99,,,0.11,Acu-Link.com,2013-03-05 05:26:00,
2013-03-04 22:41:00,11.3,-2.5,29.77,SSW,202,0.0,-999.0,53,-99.99,,,0.11,Acu-Link.com,2013-03-05 05:41:00,
2013-03-04 22:56:00,10.9,-2.1,29.78,WNW,292,0.0,-999.0,55,-99.99,,,0.11,Acu-Link.com,2013-03-05 05:56:00,
2013-03-04 23:12:00,10.8,-1.8,29.77,SW,225,0.0,-999.0,56,-99.99,,,0.11,Acu-Link.com,2013-03-05 06:12:00,
2013-03-04 23:27:00,12.0,-1.4,29.77,WNW,292,6.3,-999.0,54,-99.99,,,0.11,Acu-Link.com,2013-03-05 06:27:00,
2013-03-04 23:42:00,12.7,-2.0,29.77,West,270,5.3,-999.0,51,-99.99,,,0.11,Acu-Link.com,2013-03-05 06:42:00,
2013-03-04 23:57:00,12.7,-2.0,29.78,NNW,337,3.7,-999.0,51,-99.99,,,0.11,Acu-Link.com,2013-03-05 06:57:00,